sensor_id;sensor_type;location;lat;lon;timestamp;P1;durP1;ratioP1;P2;durP2;ratioP2
7899;SDS011;3995;50.856;4.404;2024-02-28T00:02:18;10.65;;;5.28;;
7899;SDS011;3995;50.856;4.404;2024-02-28T00:04:46;7.97;;;5.72;;
7899;SDS011;3995;50.856;4.404;2024-02-28T00:07:13;8.75;;;5.63;;
7899;SDS011;3995;50.856;4.404;2024-02-28T00:09:40;7.70;;;5.00;;
7899;SDS011;3995;50.856;4.404;2024-02-28T00:12:07;5.88;;;4.60;;
7899;SDS011;3995;50.856;4.404;2024-02-28T00:14:35;5.15;;;4.65;;
7899;SDS011;3995;50.856;4.404;2024-02-28T00:17:02;7.88;;;5.88;;
7899;SDS011;3995;50.856;4.404;2024-02-28T00:19:29;5.75;;;4.40;;
7899;SDS011;3995;50.856;4.404;2024-02-28T00:21:59;5.82;;;5.22;;
7899;SDS011;3995;50.856;4.404;2024-02-28T00:24:26;12.00;;;6.00;;
7899;SDS011;3995;50.856;4.404;2024-02-28T00:26:54;5.68;;;4.47;;
7899;SDS011;3995;50.856;4.404;2024-02-28T00:29:21;6.65;;;5.07;;
7899;SDS011;3995;50.856;4.404;2024-02-28T00:31:48;7.07;;;5.80;;
7899;SDS011;3995;50.856;4.404;2024-02-28T00:34:15;12.18;;;6.80;;
7899;SDS011;3995;50.856;4.404;2024-02-28T00:36:42;10.27;;;6.57;;
7899;SDS011;3995;50.856;4.404;2024-02-28T00:39:10;6.60;;;5.60;;
7899;SDS011;3995;50.856;4.404;2024-02-28T00:41:37;8.82;;;5.82;;
7899;SDS011;3995;50.856;4.404;2024-02-28T00:44:04;8.45;;;5.90;;
7899;SDS011;3995;50.856;4.404;2024-02-28T00:46:31;8.93;;;6.10;;
7899;SDS011;3995;50.856;4.404;2024-02-28T00:48:58;7.53;;;5.32;;
7899;SDS011;3995;50.856;4.404;2024-02-28T00:51:25;8.13;;;5.65;;
7899;SDS011;3995;50.856;4.404;2024-02-28T00:53:52;9.95;;;5.97;;
7899;SDS011;3995;50.856;4.404;2024-02-28T00:56:20;8.48;;;5.35;;
7899;SDS011;3995;50.856;4.404;2024-02-28T00:58:47;7.63;;;5.18;;
7899;SDS011;3995;50.856;4.404;2024-02-28T01:01:14;7.40;;;5.43;;
7899;SDS011;3995;50.856;4.404;2024-02-28T01:03:41;8.20;;;5.75;;
7899;SDS011;3995;50.856;4.404;2024-02-28T01:06:08;6.15;;;4.43;;
7899;SDS011;3995;50.856;4.404;2024-02-28T01:08:35;6.90;;;4.45;;
7899;SDS011;3995;50.856;4.404;2024-02-28T01:11:02;8.13;;;4.43;;
7899;SDS011;3995;50.856;4.404;2024-02-28T01:13:31;8.50;;;4.88;;
7899;SDS011;3995;50.856;4.404;2024-02-28T01:15:58;8.48;;;4.90;;
7899;SDS011;3995;50.856;4.404;2024-02-28T01:18:25;8.70;;;4.45;;
7899;SDS011;3995;50.856;4.404;2024-02-28T01:20:55;6.85;;;4.20;;
7899;SDS011;3995;50.856;4.404;2024-02-28T01:23:22;7.07;;;4.88;;
7899;SDS011;3995;50.856;4.404;2024-02-28T01:25:49;7.00;;;4.40;;
7899;SDS011;3995;50.856;4.404;2024-02-28T01:28:16;7.53;;;4.90;;
7899;SDS011;3995;50.856;4.404;2024-02-28T01:30:45;6.90;;;4.38;;
7899;SDS011;3995;50.856;4.404;2024-02-28T01:33:12;9.05;;;4.45;;
7899;SDS011;3995;50.856;4.404;2024-02-28T01:35:39;9.10;;;4.93;;
7899;SDS011;3995;50.856;4.404;2024-02-28T01:38:06;7.60;;;5.22;;
7899;SDS011;3995;50.856;4.404;2024-02-28T01:40:33;7.55;;;5.00;;
7899;SDS011;3995;50.856;4.404;2024-02-28T01:43:02;6.10;;;5.10;;
7899;SDS011;3995;50.856;4.404;2024-02-28T01:45:30;8.18;;;4.80;;
7899;SDS011;3995;50.856;4.404;2024-02-28T01:47:58;8.73;;;4.88;;
7899;SDS011;3995;50.856;4.404;2024-02-28T01:50:25;7.50;;;4.57;;
7899;SDS011;3995;50.856;4.404;2024-02-28T01:52:53;7.22;;;4.60;;
7899;SDS011;3995;50.856;4.404;2024-02-28T01:55:20;4.85;;;4.25;;
7899;SDS011;3995;50.856;4.404;2024-02-28T01:57:47;5.50;;;4.32;;
7899;SDS011;3995;50.856;4.404;2024-02-28T02:00:14;8.88;;;4.68;;
7899;SDS011;3995;50.856;4.404;2024-02-28T02:02:43;7.50;;;4.43;;
7899;SDS011;3995;50.856;4.404;2024-02-28T02:05:12;4.30;;;3.90;;
7899;SDS011;3995;50.856;4.404;2024-02-28T02:07:41;7.03;;;4.60;;
7899;SDS011;3995;50.856;4.404;2024-02-28T02:10:08;8.10;;;4.40;;
7899;SDS011;3995;50.856;4.404;2024-02-28T02:12:37;5.80;;;4.20;;
7899;SDS011;3995;50.856;4.404;2024-02-28T02:15:04;4.90;;;3.92;;
7899;SDS011;3995;50.856;4.404;2024-02-28T02:17:32;5.50;;;4.60;;
7899;SDS011;3995;50.856;4.404;2024-02-28T02:19:59;6.50;;;4.60;;
7899;SDS011;3995;50.856;4.404;2024-02-28T02:25:02;7.40;;;4.82;;
7899;SDS011;3995;50.856;4.404;2024-02-28T02:27:29;7.13;;;4.63;;
7899;SDS011;3995;50.856;4.404;2024-02-28T02:29:56;6.60;;;4.93;;
7899;SDS011;3995;50.856;4.404;2024-02-28T02:32:23;6.82;;;5.15;;
7899;SDS011;3995;50.856;4.404;2024-02-28T02:34:50;7.80;;;5.00;;
7899;SDS011;3995;50.856;4.404;2024-02-28T02:37:17;4.60;;;3.83;;
7899;SDS011;3995;50.856;4.404;2024-02-28T02:39:45;7.68;;;5.20;;
7899;SDS011;3995;50.856;4.404;2024-02-28T02:42:12;7.35;;;5.43;;
7899;SDS011;3995;50.856;4.404;2024-02-28T02:44:40;7.55;;;4.95;;
7899;SDS011;3995;50.856;4.404;2024-02-28T02:47:08;10.50;;;6.28;;
7899;SDS011;3995;50.856;4.404;2024-02-28T02:49:35;6.28;;;4.90;;
7899;SDS011;3995;50.856;4.404;2024-02-28T02:52:02;6.95;;;4.68;;
7899;SDS011;3995;50.856;4.404;2024-02-28T02:54:29;7.55;;;5.35;;
7899;SDS011;3995;50.856;4.404;2024-02-28T02:56:57;7.43;;;6.05;;
7899;SDS011;3995;50.856;4.404;2024-02-28T02:59:24;7.68;;;5.90;;
7899;SDS011;3995;50.856;4.404;2024-02-28T03:01:51;10.52;;;6.55;;
7899;SDS011;3995;50.856;4.404;2024-02-28T03:04:18;7.90;;;6.07;;
7899;SDS011;3995;50.856;4.404;2024-02-28T03:06:45;6.97;;;5.78;;
7899;SDS011;3995;50.856;4.404;2024-02-28T03:09:12;6.40;;;5.78;;
7899;SDS011;3995;50.856;4.404;2024-02-28T03:11:39;8.45;;;5.93;;
7899;SDS011;3995;50.856;4.404;2024-02-28T03:14:08;8.68;;;5.80;;
7899;SDS011;3995;50.856;4.404;2024-02-28T03:16:35;9.40;;;6.30;;
7899;SDS011;3995;50.856;4.404;2024-02-28T03:19:06;10.68;;;6.47;;
7899;SDS011;3995;50.856;4.404;2024-02-28T03:21:34;8.57;;;6.30;;
7899;SDS011;3995;50.856;4.404;2024-02-28T03:24:01;8.73;;;6.50;;
7899;SDS011;3995;50.856;4.404;2024-02-28T03:26:28;8.13;;;5.82;;
7899;SDS011;3995;50.856;4.404;2024-02-28T03:28:55;8.90;;;6.40;;
7899;SDS011;3995;50.856;4.404;2024-02-28T03:31:24;7.32;;;5.18;;
7899;SDS011;3995;50.856;4.404;2024-02-28T03:33:51;9.45;;;6.15;;
7899;SDS011;3995;50.856;4.404;2024-02-28T03:36:18;10.27;;;6.20;;
7899;SDS011;3995;50.856;4.404;2024-02-28T03:38:45;7.85;;;5.85;;
7899;SDS011;3995;50.856;4.404;2024-02-28T03:41:12;8.27;;;6.00;;
7899;SDS011;3995;50.856;4.404;2024-02-28T03:43:39;6.88;;;4.90;;
7899;SDS011;3995;50.856;4.404;2024-02-28T03:46:06;6.82;;;5.15;;
7899;SDS011;3995;50.856;4.404;2024-02-28T03:48:35;6.75;;;5.78;;
7899;SDS011;3995;50.856;4.404;2024-02-28T03:51:03;8.48;;;5.22;;
7899;SDS011;3995;50.856;4.404;2024-02-28T03:53:30;8.88;;;5.97;;
7899;SDS011;3995;50.856;4.404;2024-02-28T03:55:57;5.32;;;4.82;;
7899;SDS011;3995;50.856;4.404;2024-02-28T03:58:24;10.98;;;6.57;;
7899;SDS011;3995;50.856;4.404;2024-02-28T04:00:51;7.55;;;6.13;;
7899;SDS011;3995;50.856;4.404;2024-02-28T04:03:17;8.85;;;5.63;;
7899;SDS011;3995;50.856;4.404;2024-02-28T04:05:46;8.07;;;6.00;;
7899;SDS011;3995;50.856;4.404;2024-02-28T04:08:13;8.07;;;5.85;;
7899;SDS011;3995;50.856;4.404;2024-02-28T04:10:40;9.23;;;6.35;;
7899;SDS011;3995;50.856;4.404;2024-02-28T04:13:07;7.03;;;5.68;;
7899;SDS011;3995;50.856;4.404;2024-02-28T04:15:34;8.27;;;6.10;;
7899;SDS011;3995;50.856;4.404;2024-02-28T04:18:02;6.75;;;6.10;;
7899;SDS011;3995;50.856;4.404;2024-02-28T04:20:30;7.72;;;5.90;;
7899;SDS011;3995;50.856;4.404;2024-02-28T04:22:58;8.00;;;5.97;;
7899;SDS011;3995;50.856;4.404;2024-02-28T04:25:25;10.70;;;6.93;;
7899;SDS011;3995;50.856;4.404;2024-02-28T04:27:52;8.30;;;6.22;;
7899;SDS011;3995;50.856;4.404;2024-02-28T04:30:19;8.07;;;6.40;;
7899;SDS011;3995;50.856;4.404;2024-02-28T04:32:46;9.98;;;6.53;;
7899;SDS011;3995;50.856;4.404;2024-02-28T04:35:13;6.85;;;6.18;;
7899;SDS011;3995;50.856;4.404;2024-02-28T04:37:43;11.82;;;5.80;;
7899;SDS011;3995;50.856;4.404;2024-02-28T04:40:12;7.00;;;6.30;;
7899;SDS011;3995;50.856;4.404;2024-02-28T04:42:40;7.80;;;5.60;;
7899;SDS011;3995;50.856;4.404;2024-02-28T04:45:08;9.13;;;5.90;;
7899;SDS011;3995;50.856;4.404;2024-02-28T04:47:35;7.38;;;5.10;;
7899;SDS011;3995;50.856;4.404;2024-02-28T04:50:03;8.35;;;6.05;;
7899;SDS011;3995;50.856;4.404;2024-02-28T04:52:30;9.10;;;5.85;;
7899;SDS011;3995;50.856;4.404;2024-02-28T04:54:57;9.68;;;6.53;;
7899;SDS011;3995;50.856;4.404;2024-02-28T04:57:26;9.30;;;6.03;;
7899;SDS011;3995;50.856;4.404;2024-02-28T04:59:53;8.98;;;5.53;;
7899;SDS011;3995;50.856;4.404;2024-02-28T05:02:20;8.77;;;6.22;;
7899;SDS011;3995;50.856;4.404;2024-02-28T05:04:47;6.80;;;5.10;;
7899;SDS011;3995;50.856;4.404;2024-02-28T05:07:15;9.68;;;5.90;;
7899;SDS011;3995;50.856;4.404;2024-02-28T05:09:42;6.80;;;5.68;;
7899;SDS011;3995;50.856;4.404;2024-02-28T05:12:09;9.45;;;5.82;;
7899;SDS011;3995;50.856;4.404;2024-02-28T05:14:39;11.63;;;6.43;;
7899;SDS011;3995;50.856;4.404;2024-02-28T05:17:06;6.78;;;5.40;;
7899;SDS011;3995;50.856;4.404;2024-02-28T05:19:33;7.97;;;6.28;;
7899;SDS011;3995;50.856;4.404;2024-02-28T05:22:00;8.30;;;6.20;;
7899;SDS011;3995;50.856;4.404;2024-02-28T05:24:28;11.98;;;6.10;;
7899;SDS011;3995;50.856;4.404;2024-02-28T05:26:54;15.23;;;6.32;;
7899;SDS011;3995;50.856;4.404;2024-02-28T05:29:22;10.80;;;5.93;;
7899;SDS011;3995;50.856;4.404;2024-02-28T05:31:50;11.18;;;6.30;;
7899;SDS011;3995;50.856;4.404;2024-02-28T05:34:17;8.77;;;6.30;;
7899;SDS011;3995;50.856;4.404;2024-02-28T05:36:44;7.40;;;5.95;;
7899;SDS011;3995;50.856;4.404;2024-02-28T05:39:11;9.38;;;6.03;;
7899;SDS011;3995;50.856;4.404;2024-02-28T05:41:38;7.20;;;6.15;;
7899;SDS011;3995;50.856;4.404;2024-02-28T05:44:05;7.72;;;6.07;;
7899;SDS011;3995;50.856;4.404;2024-02-28T05:46:33;6.15;;;5.18;;
7899;SDS011;3995;50.856;4.404;2024-02-28T05:49:03;7.47;;;6.35;;
7899;SDS011;3995;50.856;4.404;2024-02-28T05:51:30;9.77;;;6.25;;
7899;SDS011;3995;50.856;4.404;2024-02-28T05:53:57;6.78;;;5.68;;
7899;SDS011;3995;50.856;4.404;2024-02-28T05:56:24;8.55;;;6.22;;
7899;SDS011;3995;50.856;4.404;2024-02-28T05:58:51;7.95;;;6.65;;
7899;SDS011;3995;50.856;4.404;2024-02-28T06:01:18;7.80;;;7.00;;
7899;SDS011;3995;50.856;4.404;2024-02-28T06:03:45;9.63;;;7.30;;
7899;SDS011;3995;50.856;4.404;2024-02-28T06:06:13;11.70;;;6.93;;
7899;SDS011;3995;50.856;4.404;2024-02-28T06:08:40;14.95;;;6.90;;
7899;SDS011;3995;50.856;4.404;2024-02-28T06:11:09;11.57;;;8.15;;
7899;SDS011;3995;50.856;4.404;2024-02-28T06:13:36;10.85;;;7.68;;
7899;SDS011;3995;50.856;4.404;2024-02-28T06:16:06;13.80;;;7.80;;
7899;SDS011;3995;50.856;4.404;2024-02-28T06:18:33;10.82;;;8.13;;
7899;SDS011;3995;50.856;4.404;2024-02-28T06:21:00;9.23;;;6.90;;
7899;SDS011;3995;50.856;4.404;2024-02-28T06:23:29;10.65;;;7.15;;
7899;SDS011;3995;50.856;4.404;2024-02-28T06:25:56;8.90;;;7.25;;
7899;SDS011;3995;50.856;4.404;2024-02-28T06:28:23;9.25;;;7.32;;
7899;SDS011;3995;50.856;4.404;2024-02-28T06:30:50;11.82;;;7.60;;
7899;SDS011;3995;50.856;4.404;2024-02-28T06:33:17;11.50;;;7.90;;
7899;SDS011;3995;50.856;4.404;2024-02-28T06:35:44;8.02;;;7.20;;
7899;SDS011;3995;50.856;4.404;2024-02-28T06:38:11;11.95;;;7.55;;
7899;SDS011;3995;50.856;4.404;2024-02-28T06:40:39;12.40;;;8.15;;
7899;SDS011;3995;50.856;4.404;2024-02-28T06:43:07;18.08;;;13.13;;
7899;SDS011;3995;50.856;4.404;2024-02-28T06:45:34;12.32;;;9.13;;
7899;SDS011;3995;50.856;4.404;2024-02-28T06:48:01;16.90;;;8.88;;
7899;SDS011;3995;50.856;4.404;2024-02-28T06:50:29;13.98;;;8.90;;
7899;SDS011;3995;50.856;4.404;2024-02-28T06:52:56;11.20;;;8.02;;
7899;SDS011;3995;50.856;4.404;2024-02-28T06:55:23;11.05;;;7.85;;
7899;SDS011;3995;50.856;4.404;2024-02-28T06:57:51;10.63;;;7.20;;
7899;SDS011;3995;50.856;4.404;2024-02-28T07:00:18;9.27;;;8.23;;
7899;SDS011;3995;50.856;4.404;2024-02-28T07:02:45;11.68;;;8.30;;
7899;SDS011;3995;50.856;4.404;2024-02-28T07:05:13;9.18;;;7.82;;
7899;SDS011;3995;50.856;4.404;2024-02-28T07:07:40;13.38;;;7.90;;
7899;SDS011;3995;50.856;4.404;2024-02-28T07:10:07;12.52;;;8.10;;
7899;SDS011;3995;50.856;4.404;2024-02-28T07:12:34;11.85;;;7.68;;
7899;SDS011;3995;50.856;4.404;2024-02-28T07:15:03;15.77;;;7.60;;
7899;SDS011;3995;50.856;4.404;2024-02-28T07:17:31;13.60;;;7.50;;
7899;SDS011;3995;50.856;4.404;2024-02-28T07:19:58;11.20;;;7.50;;
7899;SDS011;3995;50.856;4.404;2024-02-28T07:22:25;12.93;;;8.48;;
7899;SDS011;3995;50.856;4.404;2024-02-28T07:24:52;11.10;;;8.18;;
7899;SDS011;3995;50.856;4.404;2024-02-28T07:27:19;15.65;;;7.38;;
7899;SDS011;3995;50.856;4.404;2024-02-28T07:29:49;13.85;;;8.40;;
7899;SDS011;3995;50.856;4.404;2024-02-28T07:32:17;18.05;;;8.40;;
7899;SDS011;3995;50.856;4.404;2024-02-28T07:34:44;14.32;;;8.30;;
7899;SDS011;3995;50.856;4.404;2024-02-28T07:37:11;11.82;;;7.43;;
7899;SDS011;3995;50.856;4.404;2024-02-28T07:39:38;13.38;;;7.70;;
7899;SDS011;3995;50.856;4.404;2024-02-28T07:42:05;11.95;;;7.68;;
7899;SDS011;3995;50.856;4.404;2024-02-28T07:44:32;15.40;;;8.73;;
7899;SDS011;3995;50.856;4.404;2024-02-28T07:46:59;9.60;;;7.40;;
7899;SDS011;3995;50.856;4.404;2024-02-28T07:49:28;11.40;;;8.00;;
7899;SDS011;3995;50.856;4.404;2024-02-28T07:51:55;15.27;;;8.18;;
7899;SDS011;3995;50.856;4.404;2024-02-28T07:54:22;11.68;;;8.02;;
7899;SDS011;3995;50.856;4.404;2024-02-28T07:56:49;16.38;;;9.60;;
7899;SDS011;3995;50.856;4.404;2024-02-28T07:59:16;11.48;;;7.78;;
7899;SDS011;3995;50.856;4.404;2024-02-28T08:01:44;15.48;;;8.07;;
7899;SDS011;3995;50.856;4.404;2024-02-28T08:04:11;19.73;;;8.60;;
7899;SDS011;3995;50.856;4.404;2024-02-28T08:06:41;15.18;;;8.25;;
7899;SDS011;3995;50.856;4.404;2024-02-28T08:09:08;13.30;;;8.40;;
7899;SDS011;3995;50.856;4.404;2024-02-28T08:11:35;14.90;;;8.00;;
7899;SDS011;3995;50.856;4.404;2024-02-28T08:14:02;13.75;;;8.68;;
7899;SDS011;3995;50.856;4.404;2024-02-28T08:16:29;97.85;;;15.05;;
7899;SDS011;3995;50.856;4.404;2024-02-28T08:18:56;20.70;;;9.73;;
7899;SDS011;3995;50.856;4.404;2024-02-28T08:21:23;19.73;;;8.20;;
7899;SDS011;3995;50.856;4.404;2024-02-28T08:23:53;20.83;;;8.50;;
7899;SDS011;3995;50.856;4.404;2024-02-28T08:26:20;15.98;;;9.13;;
7899;SDS011;3995;50.856;4.404;2024-02-28T08:28:47;19.90;;;8.15;;
7899;SDS011;3995;50.856;4.404;2024-02-28T08:31:14;13.20;;;8.48;;
7899;SDS011;3995;50.856;4.404;2024-02-28T08:33:41;17.77;;;9.20;;
7899;SDS011;3995;50.856;4.404;2024-02-28T08:36:08;13.65;;;8.43;;
7899;SDS011;3995;50.856;4.404;2024-02-28T08:38:35;16.58;;;8.63;;
7899;SDS011;3995;50.856;4.404;2024-02-28T08:41:05;14.82;;;9.30;;
7899;SDS011;3995;50.856;4.404;2024-02-28T08:43:32;10.63;;;8.30;;
7899;SDS011;3995;50.856;4.404;2024-02-28T08:45:59;15.18;;;9.52;;
7899;SDS011;3995;50.856;4.404;2024-02-28T08:48:26;13.57;;;8.25;;
7899;SDS011;3995;50.856;4.404;2024-02-28T08:50:53;19.23;;;8.65;;
7899;SDS011;3995;50.856;4.404;2024-02-28T08:53:20;12.13;;;8.05;;
7899;SDS011;3995;50.856;4.404;2024-02-28T08:55:47;13.63;;;8.80;;
7899;SDS011;3995;50.856;4.404;2024-02-28T08:58:16;16.88;;;9.30;;
7899;SDS011;3995;50.856;4.404;2024-02-28T09:00:43;13.80;;;10.48;;
7899;SDS011;3995;50.856;4.404;2024-02-28T09:03:10;14.32;;;9.82;;
7899;SDS011;3995;50.856;4.404;2024-02-28T09:05:37;11.73;;;8.95;;
7899;SDS011;3995;50.856;4.404;2024-02-28T09:08:04;17.52;;;10.25;;
7899;SDS011;3995;50.856;4.404;2024-02-28T09:10:32;16.67;;;9.50;;
7899;SDS011;3995;50.856;4.404;2024-02-28T09:12:59;31.52;;;11.13;;
7899;SDS011;3995;50.856;4.404;2024-02-28T09:15:28;16.10;;;9.88;;
7899;SDS011;3995;50.856;4.404;2024-02-28T09:17:55;14.77;;;10.10;;
7899;SDS011;3995;50.856;4.404;2024-02-28T09:20:22;17.50;;;11.52;;
7899;SDS011;3995;50.856;4.404;2024-02-28T09:22:49;15.50;;;10.43;;
7899;SDS011;3995;50.856;4.404;2024-02-28T09:25:16;19.95;;;11.30;;
7899;SDS011;3995;50.856;4.404;2024-02-28T09:27:43;16.25;;;10.90;;
7899;SDS011;3995;50.856;4.404;2024-02-28T09:30:10;14.15;;;9.10;;
7899;SDS011;3995;50.856;4.404;2024-02-28T09:32:39;13.57;;;9.43;;
7899;SDS011;3995;50.856;4.404;2024-02-28T09:35:06;18.27;;;10.95;;
7899;SDS011;3995;50.856;4.404;2024-02-28T09:37:33;17.67;;;9.60;;
7899;SDS011;3995;50.856;4.404;2024-02-28T09:40:00;18.05;;;9.50;;
7899;SDS011;3995;50.856;4.404;2024-02-28T09:42:28;16.25;;;9.82;;
7899;SDS011;3995;50.856;4.404;2024-02-28T09:44:55;23.60;;;10.65;;
7899;SDS011;3995;50.856;4.404;2024-02-28T09:47:26;20.20;;;9.65;;
7899;SDS011;3995;50.856;4.404;2024-02-28T09:49:55;18.67;;;11.00;;
7899;SDS011;3995;50.856;4.404;2024-02-28T09:52:24;12.93;;;10.00;;
7899;SDS011;3995;50.856;4.404;2024-02-28T09:54:52;21.70;;;10.35;;
7899;SDS011;3995;50.856;4.404;2024-02-28T09:57:19;16.35;;;9.98;;
7899;SDS011;3995;50.856;4.404;2024-02-28T09:59:52;18.13;;;10.45;;
7899;SDS011;3995;50.856;4.404;2024-02-28T10:02:20;19.17;;;9.88;;
7899;SDS011;3995;50.856;4.404;2024-02-28T10:04:49;20.95;;;10.20;;
7899;SDS011;3995;50.856;4.404;2024-02-28T10:07:19;17.63;;;10.43;;
7899;SDS011;3995;50.856;4.404;2024-02-28T10:09:47;28.98;;;11.13;;
7899;SDS011;3995;50.856;4.404;2024-02-28T10:12:14;18.00;;;9.90;;
7899;SDS011;3995;50.856;4.404;2024-02-28T10:14:41;28.70;;;10.40;;
7899;SDS011;3995;50.856;4.404;2024-02-28T10:17:07;18.60;;;10.45;;
7899;SDS011;3995;50.856;4.404;2024-02-28T10:19:34;28.65;;;10.73;;
7899;SDS011;3995;50.856;4.404;2024-02-28T10:22:01;20.10;;;11.82;;
7899;SDS011;3995;50.856;4.404;2024-02-28T10:24:30;17.05;;;10.27;;
7899;SDS011;3995;50.856;4.404;2024-02-28T10:27:00;27.77;;;11.05;;
7899;SDS011;3995;50.856;4.404;2024-02-28T10:29:28;21.88;;;9.73;;
7899;SDS011;3995;50.856;4.404;2024-02-28T10:31:57;16.60;;;10.45;;
7899;SDS011;3995;50.856;4.404;2024-02-28T10:34:25;26.88;;;9.65;;
7899;SDS011;3995;50.856;4.404;2024-02-28T10:36:52;18.23;;;9.95;;
7899;SDS011;3995;50.856;4.404;2024-02-28T10:39:19;16.40;;;8.30;;
7899;SDS011;3995;50.856;4.404;2024-02-28T10:41:49;35.85;;;11.23;;
7899;SDS011;3995;50.856;4.404;2024-02-28T10:44:18;16.42;;;8.35;;
7899;SDS011;3995;50.856;4.404;2024-02-28T10:46:48;19.63;;;9.43;;
7899;SDS011;3995;50.856;4.404;2024-02-28T10:49:16;15.25;;;8.48;;
7899;SDS011;3995;50.856;4.404;2024-02-28T10:51:44;10.85;;;6.60;;
7899;SDS011;3995;50.856;4.404;2024-02-28T10:54:14;9.00;;;6.07;;
7899;SDS011;3995;50.856;4.404;2024-02-28T10:56:42;7.57;;;6.20;;
7899;SDS011;3995;50.856;4.404;2024-02-28T10:59:10;51.30;;;8.90;;
7899;SDS011;3995;50.856;4.404;2024-02-28T11:01:39;7.13;;;5.57;;
7899;SDS011;3995;50.856;4.404;2024-02-28T11:04:08;13.50;;;6.40;;
7899;SDS011;3995;50.856;4.404;2024-02-28T11:06:46;10.05;;;5.85;;
7899;SDS011;3995;50.856;4.404;2024-02-28T11:09:20;10.32;;;6.03;;
7899;SDS011;3995;50.856;4.404;2024-02-28T11:11:52;13.75;;;5.85;;
7899;SDS011;3995;50.856;4.404;2024-02-28T11:14:21;13.85;;;8.30;;
7899;SDS011;3995;50.856;4.404;2024-02-28T11:16:59;9.90;;;6.93;;
7899;SDS011;3995;50.856;4.404;2024-02-28T11:19:27;8.70;;;6.30;;
7899;SDS011;3995;50.856;4.404;2024-02-28T11:21:55;9.98;;;5.50;;
7899;SDS011;3995;50.856;4.404;2024-02-28T11:24:23;11.60;;;6.18;;
7899;SDS011;3995;50.856;4.404;2024-02-28T11:26:51;9.95;;;6.30;;
7899;SDS011;3995;50.856;4.404;2024-02-28T11:29:23;19.45;;;5.60;;
7899;SDS011;3995;50.856;4.404;2024-02-28T11:31:51;8.07;;;5.22;;
7899;SDS011;3995;50.856;4.404;2024-02-28T11:34:18;58.90;;;9.35;;
7899;SDS011;3995;50.856;4.404;2024-02-28T11:36:46;56.28;;;9.93;;
7899;SDS011;3995;50.856;4.404;2024-02-28T11:39:14;12.23;;;5.03;;
7899;SDS011;3995;50.856;4.404;2024-02-28T11:41:42;6.68;;;4.90;;
7899;SDS011;3995;50.856;4.404;2024-02-28T11:44:11;8.55;;;5.20;;
7899;SDS011;3995;50.856;4.404;2024-02-28T11:46:43;5.00;;;4.50;;
7899;SDS011;3995;50.856;4.404;2024-02-28T11:49:11;5.15;;;4.13;;
7899;SDS011;3995;50.856;4.404;2024-02-28T11:51:39;7.03;;;5.10;;
7899;SDS011;3995;50.856;4.404;2024-02-28T11:54:07;5.25;;;3.67;;
7899;SDS011;3995;50.856;4.404;2024-02-28T11:56:36;9.48;;;4.20;;
7899;SDS011;3995;50.856;4.404;2024-02-28T11:59:03;4.60;;;4.20;;
7899;SDS011;3995;50.856;4.404;2024-02-28T12:01:34;7.13;;;4.22;;
7899;SDS011;3995;50.856;4.404;2024-02-28T12:04:03;8.07;;;3.78;;
7899;SDS011;3995;50.856;4.404;2024-02-28T12:06:31;4.65;;;3.30;;
7899;SDS011;3995;50.856;4.404;2024-02-28T12:08:58;3.75;;;3.15;;
7899;SDS011;3995;50.856;4.404;2024-02-28T12:11:26;5.28;;;3.30;;
7899;SDS011;3995;50.856;4.404;2024-02-28T12:13:54;7.75;;;4.25;;
7899;SDS011;3995;50.856;4.404;2024-02-28T12:16:22;4.35;;;3.20;;
7899;SDS011;3995;50.856;4.404;2024-02-28T12:18:50;11.20;;;4.10;;
7899;SDS011;3995;50.856;4.404;2024-02-28T12:21:18;13.43;;;3.80;;
7899;SDS011;3995;50.856;4.404;2024-02-28T12:23:46;9.68;;;3.90;;
7899;SDS011;3995;50.856;4.404;2024-02-28T12:26:13;5.18;;;3.55;;
7899;SDS011;3995;50.856;4.404;2024-02-28T12:28:40;5.13;;;3.42;;
7899;SDS011;3995;50.856;4.404;2024-02-28T12:31:07;4.05;;;3.40;;
7899;SDS011;3995;50.856;4.404;2024-02-28T12:33:36;4.80;;;3.47;;
7899;SDS011;3995;50.856;4.404;2024-02-28T12:36:04;5.05;;;3.90;;
7899;SDS011;3995;50.856;4.404;2024-02-28T12:38:33;6.70;;;3.40;;
7899;SDS011;3995;50.856;4.404;2024-02-28T12:41:00;7.28;;;3.78;;
7899;SDS011;3995;50.856;4.404;2024-02-28T12:43:29;6.57;;;3.50;;
7899;SDS011;3995;50.856;4.404;2024-02-28T12:45:57;11.53;;;4.23;;
7899;SDS011;3995;50.856;4.404;2024-02-28T12:48:23;4.60;;;3.65;;
7899;SDS011;3995;50.856;4.404;2024-02-28T12:50:50;8.35;;;3.70;;
7899;SDS011;3995;50.856;4.404;2024-02-28T12:53:17;8.52;;;3.95;;
7899;SDS011;3995;50.856;4.404;2024-02-28T12:55:46;7.55;;;3.80;;
7899;SDS011;3995;50.856;4.404;2024-02-28T12:58:13;5.37;;;4.30;;
7899;SDS011;3995;50.856;4.404;2024-02-28T13:00:40;11.25;;;3.78;;
7899;SDS011;3995;50.856;4.404;2024-02-28T13:03:08;5.15;;;3.67;;
7899;SDS011;3995;50.856;4.404;2024-02-28T13:05:35;6.43;;;4.22;;
7899;SDS011;3995;50.856;4.404;2024-02-28T13:08:02;6.18;;;3.65;;
7899;SDS011;3995;50.856;4.404;2024-02-28T13:10:29;4.38;;;3.33;;
7899;SDS011;3995;50.856;4.404;2024-02-28T13:13:00;13.50;;;4.55;;
7899;SDS011;3995;50.856;4.404;2024-02-28T13:15:28;5.68;;;4.00;;
7899;SDS011;3995;50.856;4.404;2024-02-28T13:17:55;6.53;;;3.95;;
7899;SDS011;3995;50.856;4.404;2024-02-28T13:20:22;8.15;;;3.42;;
7899;SDS011;3995;50.856;4.404;2024-02-28T13:22:49;7.28;;;4.05;;
7899;SDS011;3995;50.856;4.404;2024-02-28T13:25:16;4.30;;;3.65;;
7899;SDS011;3995;50.856;4.404;2024-02-28T13:27:44;6.63;;;3.75;;
7899;SDS011;3995;50.856;4.404;2024-02-28T13:30:13;9.13;;;4.60;;
7899;SDS011;3995;50.856;4.404;2024-02-28T13:32:40;8.35;;;3.53;;
7899;SDS011;3995;50.856;4.404;2024-02-28T13:35:07;13.82;;;5.13;;
7899;SDS011;3995;50.856;4.404;2024-02-28T13:37:35;8.00;;;4.35;;
7899;SDS011;3995;50.856;4.404;2024-02-28T13:40:05;7.45;;;4.25;;
7899;SDS011;3995;50.856;4.404;2024-02-28T13:42:33;37.88;;;6.25;;
7899;SDS011;3995;50.856;4.404;2024-02-28T13:45:00;5.38;;;2.83;;
7899;SDS011;3995;50.856;4.404;2024-02-28T13:47:31;5.60;;;3.80;;
7899;SDS011;3995;50.856;4.404;2024-02-28T13:49:59;7.65;;;3.72;;
7899;SDS011;3995;50.856;4.404;2024-02-28T13:52:26;5.95;;;3.40;;
7899;SDS011;3995;50.856;4.404;2024-02-28T13:54:53;4.60;;;3.50;;
7899;SDS011;3995;50.856;4.404;2024-02-28T13:57:20;5.78;;;4.15;;
7899;SDS011;3995;50.856;4.404;2024-02-28T13:59:47;4.20;;;3.50;;
7899;SDS011;3995;50.856;4.404;2024-02-28T14:02:16;7.50;;;4.55;;
7899;SDS011;3995;50.856;4.404;2024-02-28T14:04:45;6.63;;;3.80;;
7899;SDS011;3995;50.856;4.404;2024-02-28T14:07:13;4.55;;;4.05;;
7899;SDS011;3995;50.856;4.404;2024-02-28T14:09:42;5.70;;;4.17;;
7899;SDS011;3995;50.856;4.404;2024-02-28T14:12:09;4.95;;;3.55;;
7899;SDS011;3995;50.856;4.404;2024-02-28T14:14:37;5.75;;;4.10;;
7899;SDS011;3995;50.856;4.404;2024-02-28T14:17:04;8.90;;;4.50;;
7899;SDS011;3995;50.856;4.404;2024-02-28T14:19:32;9.18;;;4.63;;
7899;SDS011;3995;50.856;4.404;2024-02-28T14:22:01;14.63;;;9.55;;
7899;SDS011;3995;50.856;4.404;2024-02-28T14:24:29;29.73;;;5.90;;
7899;SDS011;3995;50.856;4.404;2024-02-28T14:26:56;5.55;;;3.05;;
7899;SDS011;3995;50.856;4.404;2024-02-28T14:29:23;14.88;;;4.28;;
7899;SDS011;3995;50.856;4.404;2024-02-28T14:31:50;5.53;;;3.88;;
7899;SDS011;3995;50.856;4.404;2024-02-28T14:34:17;5.28;;;3.75;;
7899;SDS011;3995;50.856;4.404;2024-02-28T14:36:44;9.35;;;4.68;;
7899;SDS011;3995;50.856;4.404;2024-02-28T14:39:12;14.05;;;4.40;;
7899;SDS011;3995;50.856;4.404;2024-02-28T14:41:40;11.93;;;4.40;;
7899;SDS011;3995;50.856;4.404;2024-02-28T14:44:08;6.37;;;3.90;;
7899;SDS011;3995;50.856;4.404;2024-02-28T14:46:36;4.93;;;4.10;;
7899;SDS011;3995;50.856;4.404;2024-02-28T14:49:03;6.00;;;4.28;;
7899;SDS011;3995;50.856;4.404;2024-02-28T14:51:30;15.97;;;7.50;;
7899;SDS011;3995;50.856;4.404;2024-02-28T14:53:58;6.77;;;4.77;;
7899;SDS011;3995;50.856;4.404;2024-02-28T14:56:26;6.05;;;3.55;;
7899;SDS011;3995;50.856;4.404;2024-02-28T14:58:54;8.63;;;4.20;;
7899;SDS011;3995;50.856;4.404;2024-02-28T15:01:21;5.70;;;3.50;;
7899;SDS011;3995;50.856;4.404;2024-02-28T15:03:48;4.20;;;3.38;;
7899;SDS011;3995;50.856;4.404;2024-02-28T15:06:16;9.63;;;5.20;;
7899;SDS011;3995;50.856;4.404;2024-02-28T15:08:43;5.32;;;3.60;;
7899;SDS011;3995;50.856;4.404;2024-02-28T15:11:10;6.93;;;3.77;;
7899;SDS011;3995;50.856;4.404;2024-02-28T15:13:39;6.80;;;3.50;;